createdAt,value
2019-03-26T00:01:17.359Z,99.90
2019-03-26T00:03:48.491Z,99.90
2019-03-26T00:06:19.660Z,99.90
2019-03-26T00:08:51.894Z,99.90
2019-03-26T00:11:23.647Z,99.90
2019-03-26T00:13:57.558Z,99.90
2019-03-26T00:16:28.525Z,99.90
2019-03-26T00:19:01.663Z,99.90
2019-03-26T00:21:33.783Z,99.90
2019-03-26T00:24:06.493Z,99.90
2019-03-26T00:26:38.560Z,99.90
2019-03-26T00:29:10.015Z,99.90
2019-03-26T00:31:41.136Z,99.90
2019-03-26T00:34:19.131Z,99.90
2019-03-26T00:36:44.960Z,99.90
2019-03-26T00:39:16.211Z,99.90
2019-03-26T00:41:47.236Z,99.90
2019-03-26T00:44:18.383Z,99.90
2019-03-26T00:46:49.638Z,99.90
2019-03-26T00:49:20.733Z,99.90
2019-03-26T00:51:51.822Z,99.90
2019-03-26T00:54:22.866Z,99.90
2019-03-26T00:56:54.038Z,99.90
2019-03-26T00:59:25.179Z,99.90
2019-03-26T01:01:56.426Z,99.90
2019-03-26T01:04:33.129Z,99.90
2019-03-26T01:07:00.132Z,99.90
2019-03-26T01:09:31.311Z,99.90
2019-03-26T01:12:02.508Z,99.90
2019-03-26T01:14:33.652Z,99.90
2019-03-26T01:17:04.788Z,99.90
2019-03-26T01:19:35.994Z,99.90
2019-03-26T01:22:07.099Z,99.90
2019-03-26T01:24:38.211Z,99.90
2019-03-26T01:27:09.352Z,99.90
2019-03-26T01:29:40.445Z,99.90
2019-03-26T01:32:11.511Z,99.90
2019-03-26T01:34:46.110Z,99.90
2019-03-26T01:37:15.347Z,99.90
2019-03-26T01:39:46.442Z,99.90
2019-03-26T01:42:17.515Z,99.90
2019-03-26T01:44:48.675Z,99.90
2019-03-26T01:47:19.810Z,99.90
2019-03-26T01:49:52.024Z,99.90
2019-03-26T01:52:23.014Z,99.90
2019-03-26T01:54:54.172Z,99.90
2019-03-26T01:57:25.263Z,99.90
2019-03-26T01:59:56.401Z,99.90
2019-03-26T02:02:27.504Z,99.90
2019-03-26T02:05:00.586Z,99.90
2019-03-26T02:07:31.931Z,99.90
2019-03-26T02:10:03.044Z,99.90
2019-03-26T02:12:34.171Z,99.90
2019-03-26T02:15:05.725Z,99.90
2019-03-26T02:17:36.867Z,99.90
2019-03-26T02:20:08.086Z,99.90
2019-03-26T02:25:21.911Z,99.90
2019-03-26T02:30:43.120Z,99.90
2019-03-26T02:33:14.423Z,99.90
2019-03-26T02:35:45.519Z,99.90
2019-03-26T02:38:16.612Z,99.90
2019-03-26T02:40:47.748Z,99.90
2019-03-26T02:43:18.908Z,99.90
2019-03-26T02:45:50.048Z,99.90
2019-03-26T02:48:24.227Z,99.90
2019-03-26T02:50:55.246Z,99.90
2019-03-26T02:53:26.419Z,99.90
2019-03-26T02:55:57.557Z,99.90
2019-03-26T02:58:28.724Z,99.90
2019-03-26T03:00:59.849Z,99.90
2019-03-26T03:03:31.041Z,99.90
2019-03-26T03:06:02.153Z,99.90
2019-03-26T03:08:33.260Z,99.90
2019-03-26T03:11:06.001Z,99.90
2019-03-26T03:13:37.138Z,99.90
2019-03-26T03:16:08.259Z,99.90
2019-03-26T03:18:39.407Z,99.90
2019-03-26T03:21:10.574Z,99.90
2019-03-26T03:23:41.710Z,99.90
2019-03-26T03:26:12.743Z,99.90
2019-03-26T03:28:43.872Z,99.90
2019-03-26T03:31:15.022Z,99.90
2019-03-26T03:33:46.120Z,99.90
2019-03-26T03:36:17.252Z,99.90
2019-03-26T03:38:48.417Z,99.90
2019-03-26T03:41:19.445Z,99.90
2019-03-26T03:43:50.601Z,99.90
2019-03-26T03:46:22.178Z,99.90
2019-03-26T03:51:44.100Z,99.90
2019-03-26T03:54:15.458Z,99.90
2019-03-26T03:56:49.597Z,99.90
2019-03-26T04:02:09.988Z,99.90
2019-03-26T04:04:41.021Z,99.90
2019-03-26T04:07:12.143Z,99.90
2019-03-26T04:09:43.251Z,99.90
2019-03-26T04:12:14.384Z,99.90
2019-03-26T04:14:45.429Z,99.90
2019-03-26T04:17:16.588Z,99.90
2019-03-26T04:22:29.825Z,99.90
2019-03-26T04:27:50.123Z,99.90
2019-03-26T04:30:29.671Z,99.90
2019-03-26T04:33:00.789Z,99.90
2019-03-26T04:35:32.049Z,99.90
2019-03-26T04:38:03.109Z,99.90
2019-03-26T04:40:34.206Z,99.90
2019-03-26T04:43:05.314Z,99.90
2019-03-26T04:45:36.459Z,99.90
2019-03-26T04:48:07.529Z,99.90
2019-03-26T04:50:38.709Z,99.90
2019-03-26T04:53:09.888Z,99.90
2019-03-26T04:55:41.052Z,99.90
2019-03-26T04:58:12.225Z,99.90
2019-03-26T05:00:43.373Z,99.90
2019-03-26T05:03:14.547Z,99.90
2019-03-26T05:05:45.584Z,99.90
2019-03-26T05:08:16.696Z,99.90
2019-03-26T05:10:49.258Z,99.90
2019-03-26T05:13:20.479Z,99.90
2019-03-26T05:15:51.592Z,99.90
2019-03-26T05:18:22.667Z,99.90
2019-03-26T05:20:53.727Z,99.90
2019-03-26T05:23:25.725Z,99.90
2019-03-26T05:25:56.845Z,99.90
2019-03-26T05:28:28.952Z,99.90
2019-03-26T05:31:00.047Z,99.90
2019-03-26T05:33:31.146Z,99.90
2019-03-26T05:36:02.312Z,99.90
2019-03-26T05:38:33.323Z,99.90
2019-03-26T05:41:04.548Z,99.90
2019-03-26T05:43:35.699Z,99.90
2019-03-26T05:46:06.838Z,99.90
2019-03-26T05:48:37.897Z,99.90
2019-03-26T05:51:08.980Z,99.90
2019-03-26T05:53:40.088Z,99.90
2019-03-26T05:56:11.235Z,99.90
2019-03-26T05:58:42.377Z,99.90
2019-03-26T06:01:13.547Z,99.90
2019-03-26T06:03:44.665Z,99.90
2019-03-26T06:06:15.813Z,99.90
2019-03-26T06:08:46.949Z,99.90
2019-03-26T06:11:18.153Z,99.90
2019-03-26T06:13:49.310Z,99.90
2019-03-26T06:16:20.491Z,99.90
2019-03-26T06:18:51.667Z,99.90
2019-03-26T06:21:22.722Z,99.90
2019-03-26T06:23:54.008Z,99.90
2019-03-26T06:26:25.152Z,99.90
2019-03-26T06:28:56.328Z,99.90
2019-03-26T06:31:27.485Z,99.90
2019-03-26T06:33:58.659Z,99.90
2019-03-26T06:36:29.844Z,99.90
2019-03-26T06:39:00.871Z,99.90
2019-03-26T06:41:32.006Z,99.90
2019-03-26T06:44:03.108Z,99.90
2019-03-26T06:46:34.210Z,99.90
2019-03-26T06:49:05.405Z,99.90
2019-03-26T06:51:36.619Z,99.90
2019-03-26T06:54:07.758Z,99.90
2019-03-26T06:56:38.905Z,99.90
2019-03-26T06:59:10.072Z,99.90
2019-03-26T07:01:41.221Z,99.90
2019-03-26T07:04:12.364Z,99.90
2019-03-26T07:06:43.385Z,99.90
2019-03-26T07:09:14.495Z,99.90
2019-03-26T07:11:45.832Z,99.90
2019-03-26T07:14:16.998Z,99.90
2019-03-26T07:16:48.119Z,99.90
2019-03-26T07:19:19.209Z,99.90
2019-03-26T07:21:50.312Z,99.90
2019-03-26T07:24:21.394Z,99.90
2019-03-26T07:26:52.535Z,99.90
2019-03-26T07:29:23.844Z,99.90
2019-03-26T07:31:54.939Z,99.90
2019-03-26T07:34:26.086Z,99.90
2019-03-26T07:36:57.126Z,99.90
2019-03-26T07:39:28.236Z,99.90
2019-03-26T07:41:59.528Z,99.90
2019-03-26T07:44:30.603Z,99.90
2019-03-26T07:47:01.788Z,99.90
2019-03-26T07:49:32.925Z,99.90
2019-03-26T07:52:04.160Z,99.90
2019-03-26T07:54:36.311Z,99.90
2019-03-26T07:57:07.439Z,99.90
2019-03-26T07:59:38.537Z,99.90
2019-03-26T08:02:09.594Z,99.90
2019-03-26T08:04:40.692Z,99.90
2019-03-26T08:07:11.867Z,99.90
2019-03-26T08:09:43.053Z,99.90
2019-03-26T08:12:14.140Z,99.90
2019-03-26T08:14:45.313Z,99.90
2019-03-26T08:17:16.409Z,99.90
2019-03-26T08:19:47.501Z,99.90
2019-03-26T08:22:18.625Z,99.90
2019-03-26T08:24:49.736Z,99.90
2019-03-26T08:27:20.814Z,99.90
2019-03-26T08:29:51.943Z,99.90
2019-03-26T08:32:23.180Z,99.90
2019-03-26T08:34:54.377Z,99.90
2019-03-26T08:40:00.667Z,99.90
2019-03-26T08:42:32.013Z,99.90
2019-03-26T08:45:03.173Z,99.90
2019-03-26T08:47:35.289Z,99.90
2019-03-26T08:50:06.670Z,99.90
2019-03-26T08:52:37.760Z,99.90
2019-03-26T08:55:09.545Z,99.90
2019-03-26T08:57:40.679Z,99.90
2019-03-26T09:00:12.284Z,99.90
2019-03-26T09:02:43.459Z,99.90
2019-03-26T09:05:14.625Z,99.90
2019-03-26T09:07:45.763Z,99.90
2019-03-26T09:10:17.364Z,99.90
2019-03-26T09:12:48.560Z,99.90
2019-03-26T09:15:19.791Z,99.90
2019-03-26T09:17:50.911Z,99.90
2019-03-26T09:23:12.319Z,99.90
2019-03-26T09:25:43.240Z,99.90
2019-03-26T09:28:15.345Z,99.90
2019-03-26T09:30:46.395Z,99.90
2019-03-26T09:33:17.555Z,99.90
2019-03-26T09:35:48.656Z,99.90
2019-03-26T09:38:19.738Z,99.90
2019-03-26T09:40:50.833Z,99.90
2019-03-26T09:43:21.933Z,99.90
2019-03-26T09:45:53.045Z,99.90
2019-03-26T09:48:24.100Z,99.90
2019-03-26T09:50:55.949Z,99.90
2019-03-26T09:53:27.026Z,99.90
2019-03-26T09:55:58.133Z,99.90
2019-03-26T09:58:29.261Z,99.90
2019-03-26T10:01:03.380Z,99.90
2019-03-26T10:03:35.034Z,99.90
2019-03-26T10:06:06.114Z,99.90
2019-03-26T10:08:37.219Z,99.90
2019-03-26T10:11:08.332Z,99.90
2019-03-26T10:13:39.419Z,99.90
2019-03-26T10:16:10.473Z,99.90
2019-03-26T10:18:41.619Z,99.90
2019-03-26T10:21:12.813Z,99.90
2019-03-26T10:23:43.971Z,99.90
2019-03-26T10:26:15.107Z,99.90
2019-03-26T10:28:46.256Z,99.90
2019-03-26T10:31:17.439Z,99.90
2019-03-26T10:33:48.561Z,99.90
2019-03-26T10:36:19.692Z,99.90
2019-03-26T10:38:50.805Z,99.90
2019-03-26T10:41:21.903Z,99.90
2019-03-26T10:43:53.007Z,99.90
2019-03-26T10:46:24.111Z,99.90
2019-03-26T10:48:55.246Z,99.90
2019-03-26T10:51:26.368Z,99.90
2019-03-26T10:53:57.526Z,99.90
2019-03-26T10:56:28.695Z,99.00
2019-03-26T10:58:59.839Z,98.80
2019-03-26T11:01:30.971Z,98.80
2019-03-26T11:04:02.096Z,98.50
2019-03-26T11:06:33.203Z,96.80
2019-03-26T11:09:18.838Z,97.80
2019-03-26T11:11:38.035Z,96.80
2019-03-26T11:14:09.326Z,97.50
2019-03-26T11:16:40.431Z,97.20
2019-03-26T11:19:11.522Z,97.30
2019-03-26T11:21:42.641Z,97.70
2019-03-26T11:24:13.622Z,98.10
2019-03-26T11:26:44.719Z,97.50
2019-03-26T11:29:15.869Z,97.30
2019-03-26T11:31:47.067Z,97.10
2019-03-26T11:34:18.120Z,97.60
2019-03-26T11:36:49.174Z,97.40
2019-03-26T11:39:32.274Z,97.20
2019-03-26T11:41:53.931Z,97.00
2019-03-26T11:44:24.980Z,97.50
2019-03-26T11:46:56.087Z,97.40
2019-03-26T11:49:27.234Z,96.50
2019-03-26T11:51:58.450Z,96.20
2019-03-26T11:54:29.620Z,95.20
2019-03-26T11:57:00.875Z,95.10
2019-03-26T11:59:31.990Z,95.50
2019-03-26T12:02:03.541Z,95.50
2019-03-26T12:04:34.656Z,95.70
2019-03-26T12:07:05.786Z,95.00
2019-03-26T12:09:46.330Z,95.40
2019-03-26T12:12:09.667Z,95.90
2019-03-26T12:14:40.800Z,97.10
2019-03-26T12:17:14.784Z,96.90
2019-03-26T12:19:44.542Z,96.70
2019-03-26T12:22:15.648Z,96.10
2019-03-26T12:24:46.726Z,96.10
2019-03-26T12:27:17.793Z,95.60
2019-03-26T12:29:48.944Z,95.20
2019-03-26T12:32:20.051Z,95.80
2019-03-26T12:34:51.176Z,96.20
2019-03-26T12:37:22.291Z,96.20
2019-03-26T12:39:59.350Z,95.80
2019-03-26T12:42:27.037Z,95.30
2019-03-26T12:44:58.118Z,95.40
2019-03-26T12:47:29.169Z,95.90
2019-03-26T12:50:00.505Z,95.00
2019-03-26T12:52:31.584Z,95.00
2019-03-26T12:55:02.690Z,94.80
2019-03-26T12:57:33.793Z,94.40
2019-03-26T13:00:05.407Z,94.10
2019-03-26T13:02:36.549Z,93.70
2019-03-26T13:05:08.228Z,94.50
2019-03-26T13:07:39.345Z,92.80
2019-03-26T13:10:13.769Z,93.00
2019-03-26T13:12:44.228Z,93.70
2019-03-26T13:15:15.322Z,93.90
2019-03-26T13:17:46.428Z,92.50
2019-03-26T13:20:17.575Z,93.70
2019-03-26T13:22:49.482Z,93.00
2019-03-26T13:25:20.591Z,93.10
2019-03-26T13:27:51.713Z,92.80
2019-03-26T13:30:23.136Z,92.80
2019-03-26T13:32:55.283Z,92.70
2019-03-26T13:35:26.352Z,91.50
2019-03-26T13:37:57.476Z,91.00
2019-03-26T13:40:28.590Z,84.50
2019-03-26T13:42:59.707Z,76.30
2019-03-26T13:45:32.795Z,70.50
2019-03-26T13:48:03.457Z,73.90
2019-03-26T13:50:34.571Z,67.40
2019-03-26T13:53:05.643Z,72.00
2019-03-26T13:55:36.763Z,64.70
2019-03-26T13:58:07.903Z,54.90
2019-03-26T14:00:40.536Z,54.80
2019-03-26T14:03:12.632Z,47.30
2019-03-26T14:05:43.749Z,46.20
2019-03-26T14:08:14.913Z,47.80
2019-03-26T14:10:46.091Z,46.70
2019-03-26T14:13:17.207Z,45.10
2019-03-26T14:15:48.346Z,42.60
2019-03-26T14:18:19.520Z,41.80
2019-03-26T14:20:50.683Z,39.60
2019-03-26T14:23:21.841Z,39.00
2019-03-26T14:25:52.925Z,38.80
2019-03-26T14:28:24.027Z,39.90
2019-03-26T14:30:55.184Z,39.70
2019-03-26T14:33:26.339Z,40.40
2019-03-26T14:35:57.448Z,40.50
2019-03-26T14:38:28.507Z,39.10
2019-03-26T14:40:59.583Z,37.80
2019-03-26T14:43:30.748Z,39.00
2019-03-26T14:46:02.977Z,41.80
2019-03-26T14:48:34.149Z,39.20
2019-03-26T14:51:05.245Z,39.70
2019-03-26T14:53:36.375Z,40.20
2019-03-26T14:56:08.447Z,41.20
2019-03-26T14:58:39.612Z,43.10
2019-03-26T15:01:10.759Z,42.90
2019-03-26T15:03:43.634Z,44.50
2019-03-26T15:06:14.751Z,43.20
2019-03-26T15:08:45.900Z,43.70
2019-03-26T15:11:16.997Z,44.40
2019-03-26T15:13:49.601Z,45.40
2019-03-26T15:16:20.949Z,46.40
2019-03-26T15:18:52.123Z,49.40
2019-03-26T15:21:23.261Z,47.00
2019-03-26T15:23:54.503Z,49.10
2019-03-26T15:26:25.650Z,49.90
2019-03-26T15:28:56.778Z,50.20
2019-03-26T15:31:27.948Z,52.20
2019-03-26T15:33:59.150Z,53.90
2019-03-26T15:36:30.224Z,54.30
2019-03-26T15:39:01.407Z,51.10
2019-03-26T15:41:34.108Z,51.30
2019-03-26T15:44:05.444Z,52.10
2019-03-26T15:46:36.812Z,48.60
2019-03-26T15:49:08.748Z,49.60
2019-03-26T15:51:39.880Z,48.80
2019-03-26T15:54:10.997Z,50.10
2019-03-26T15:56:42.163Z,52.30
2019-03-26T15:59:13.215Z,52.70
2019-03-26T16:01:44.228Z,52.30
2019-03-26T16:04:15.352Z,49.80
2019-03-26T16:06:47.896Z,52.90
2019-03-26T16:09:19.128Z,54.90
2019-03-26T16:11:50.283Z,55.00
2019-03-26T16:14:21.455Z,53.20
2019-03-26T16:16:52.632Z,52.40
2019-03-26T16:19:32.058Z,55.70
2019-03-26T16:21:56.677Z,52.70
2019-03-26T16:24:27.856Z,52.50
2019-03-26T16:26:58.937Z,52.50
2019-03-26T16:29:30.242Z,52.30
2019-03-26T16:32:01.443Z,52.00
2019-03-26T16:34:33.088Z,51.40
2019-03-26T16:37:05.646Z,53.30
2019-03-26T16:39:36.964Z,55.50
2019-03-26T16:42:08.161Z,60.30
2019-03-26T16:44:39.343Z,60.60
2019-03-26T16:47:10.506Z,58.20
2019-03-26T16:49:42.003Z,58.50
2019-03-26T16:52:13.096Z,65.00
2019-03-26T16:54:44.405Z,61.00
2019-03-26T16:57:15.514Z,64.90
2019-03-26T16:59:46.676Z,66.80
2019-03-26T17:02:17.993Z,69.00
2019-03-26T17:04:49.159Z,71.30
2019-03-26T17:07:20.277Z,71.30
2019-03-26T17:09:51.386Z,79.70
2019-03-26T17:12:22.407Z,81.30
2019-03-26T17:14:53.494Z,79.30
2019-03-26T17:17:24.591Z,78.50
2019-03-26T17:19:56.193Z,85.80
2019-03-26T17:22:27.270Z,91.80
2019-03-26T17:24:58.339Z,95.10
2019-03-26T17:27:29.530Z,97.20
2019-03-26T17:30:00.617Z,97.90
2019-03-26T17:32:31.703Z,99.00
2019-03-26T17:35:02.749Z,99.90
2019-03-26T17:37:33.862Z,99.90
2019-03-26T17:40:05.101Z,99.90
2019-03-26T17:42:36.232Z,99.90
2019-03-26T17:45:07.832Z,99.90
2019-03-26T17:47:39.010Z,99.90
2019-03-26T17:52:52.213Z,99.90
2019-03-26T17:55:23.328Z,99.90
2019-03-26T17:57:55.459Z,99.90
2019-03-26T18:00:46.364Z,99.90
2019-03-26T18:03:26.089Z,99.90
2019-03-26T18:05:50.348Z,99.90
2019-03-26T18:08:21.483Z,99.90
2019-03-26T18:10:52.698Z,99.90
2019-03-26T18:13:23.829Z,99.90
2019-03-26T18:15:55.062Z,99.90
2019-03-26T18:18:26.160Z,99.90
2019-03-26T18:20:57.304Z,99.90
2019-03-26T18:23:28.497Z,99.90
2019-03-26T18:25:59.651Z,99.90
2019-03-26T18:28:30.758Z,99.90
2019-03-26T18:31:02.904Z,99.90
2019-03-26T18:33:34.028Z,99.90
2019-03-26T18:36:05.228Z,99.90
2019-03-26T18:38:36.361Z,99.90
2019-03-26T18:41:07.556Z,99.90
2019-03-26T18:43:38.766Z,99.90
2019-03-26T18:46:09.948Z,99.90
2019-03-26T18:48:41.605Z,99.90
2019-03-26T18:51:13.890Z,99.90
2019-03-26T18:53:44.960Z,99.90
2019-03-26T18:56:16.140Z,99.90
2019-03-26T18:58:47.303Z,99.90
2019-03-26T19:01:18.509Z,99.90
2019-03-26T19:03:49.655Z,99.90
2019-03-26T19:06:20.789Z,99.90
2019-03-26T19:08:52.143Z,99.90
2019-03-26T19:11:23.359Z,99.90
2019-03-26T19:13:54.397Z,99.90
2019-03-26T19:16:25.668Z,99.90
2019-03-26T19:18:56.868Z,99.90
2019-03-26T19:21:28.080Z,99.90
2019-03-26T19:24:04.538Z,99.90
2019-03-26T19:26:32.065Z,99.90
2019-03-26T19:29:03.211Z,99.90
2019-03-26T19:31:34.434Z,99.90
2019-03-26T19:34:05.426Z,99.90
2019-03-26T19:36:36.633Z,99.90
2019-03-26T19:39:09.074Z,99.90
2019-03-26T19:41:40.518Z,99.90
2019-03-26T19:47:01.231Z,99.90
2019-03-26T19:49:32.376Z,99.90
2019-03-26T19:52:03.695Z,99.90
2019-03-26T19:54:34.849Z,99.90
2019-03-26T19:57:05.972Z,99.90
2019-03-26T19:59:37.111Z,99.90
2019-03-26T20:02:08.264Z,99.90
2019-03-26T20:04:39.525Z,99.90
2019-03-26T20:12:56.183Z,99.90
2019-03-26T20:15:27.498Z,99.90
2019-03-26T20:17:58.726Z,99.90
2019-03-26T20:20:29.974Z,99.90
2019-03-26T20:23:01.104Z,99.90
2019-03-26T20:25:32.392Z,99.90
2019-03-26T20:28:03.561Z,99.90
2019-03-26T20:30:34.706Z,99.90
2019-03-26T20:33:06.840Z,99.90
2019-03-26T20:35:38.030Z,99.90
2019-03-26T20:38:09.187Z,99.90
2019-03-26T20:40:40.399Z,99.90
2019-03-26T20:43:11.567Z,99.90
2019-03-26T20:45:42.694Z,99.90
2019-03-26T20:48:13.908Z,99.90
2019-03-26T20:50:45.038Z,99.90
2019-03-26T20:53:16.290Z,99.90
2019-03-26T20:55:54.277Z,99.90
2019-03-26T20:58:20.213Z,99.90
2019-03-26T21:00:51.359Z,99.90
2019-03-26T21:03:22.536Z,99.90
2019-03-26T21:05:54.363Z,99.90
2019-03-26T21:08:25.487Z,99.90
2019-03-26T21:10:56.608Z,99.90
2019-03-26T21:13:27.799Z,99.90
2019-03-26T21:15:58.912Z,99.90
2019-03-26T21:18:30.023Z,99.90
2019-03-26T21:21:01.156Z,99.90
2019-03-26T21:23:32.414Z,99.90
2019-03-26T21:26:03.616Z,99.90
2019-03-26T21:28:34.764Z,99.90
2019-03-26T21:31:05.950Z,99.90
2019-03-26T21:36:25.996Z,99.90
2019-03-26T21:38:57.116Z,99.90
2019-03-26T21:41:28.282Z,99.90
2019-03-26T21:44:04.534Z,99.90
2019-03-26T21:46:32.162Z,99.90
2019-03-26T21:49:03.306Z,99.90
2019-03-26T21:51:34.384Z,99.90
2019-03-26T21:54:05.716Z,99.90
2019-03-26T21:56:36.774Z,99.90
2019-03-26T21:59:08.067Z,99.90
2019-03-26T22:01:39.189Z,99.90
2019-03-26T22:04:10.336Z,99.90
2019-03-26T22:06:41.552Z,99.90
2019-03-26T22:09:12.714Z,99.90
2019-03-26T22:11:49.769Z,99.90
2019-03-26T22:14:18.297Z,99.90
2019-03-26T22:16:49.680Z,99.90
2019-03-26T22:19:28.428Z,99.90
2019-03-26T22:21:54.513Z,99.90
2019-03-26T22:24:25.591Z,99.90
2019-03-26T22:26:56.727Z,99.90
2019-03-26T22:29:27.799Z,99.90
2019-03-26T22:31:59.134Z,99.90
2019-03-26T22:34:30.303Z,99.90
2019-03-26T22:37:01.322Z,99.90
2019-03-26T22:42:22.036Z,99.90
2019-03-26T22:44:53.153Z,99.90
2019-03-26T22:47:24.273Z,99.90
2019-03-26T22:49:57.313Z,99.90
2019-03-26T22:52:28.095Z,99.90
2019-03-26T22:54:59.240Z,99.90
2019-03-26T22:57:30.309Z,99.90
2019-03-26T23:00:01.377Z,99.90
2019-03-26T23:02:34.809Z,99.90
2019-03-26T23:05:07.647Z,99.90
2019-03-26T23:07:38.756Z,99.90
2019-03-26T23:10:11.282Z,99.90
2019-03-26T23:12:42.505Z,99.90
2019-03-26T23:15:19.815Z,99.90
2019-03-26T23:17:50.997Z,99.90
2019-03-26T23:20:22.371Z,99.90
2019-03-26T23:22:53.602Z,99.90
2019-03-26T23:25:25.003Z,99.90
2019-03-26T23:27:56.244Z,99.90
2019-03-26T23:30:28.336Z,99.90
2019-03-26T23:32:59.503Z,99.90
2019-03-26T23:35:30.607Z,99.90
2019-03-26T23:38:01.917Z,99.90
2019-03-26T23:40:34.370Z,99.90
2019-03-26T23:43:05.498Z,99.90
2019-03-26T23:45:36.647Z,99.90
2019-03-26T23:48:07.760Z,99.90
2019-03-26T23:50:38.879Z,99.90
2019-03-26T23:53:09.975Z,99.90
2019-03-26T23:55:41.110Z,99.90
2019-03-26T23:58:12.219Z,99.90
